Terminal Aerodrome Forecast
Issued by NWS Sterling, VA

Home | Current Version | Previous Version | Text Only | Print | Product List | Glossary On
Versions: 1 2 3 4 5 6 7 8 9 10 11 12 13 14 15 16 17
763
FTUS41 KLWX 250522
TAFCHO
TAF
KCHO 250522Z 2506/2606 03010KT 6SM -DZ BR VCSH SCT003 OVC006
     FM251000 01010KT 5SM -RADZ BR BKN003 OVC015
     FM251300 01010G18KT 5SM -RA BKN008 OVC015
     FM252100 01006KT P6SM BKN008 OVC015
     FM260000 35006KT P6SM BKN015 OVC030
     FM260300 33004KT P6SM BKN025 OVC050=

USA.gov is the U.S. government's official web portal to all federal, state and local government web resources and services.